Time;durP1;ratioP1;P1;durP2;ratioP2;P2;SDS_P1;SDS_P2;PMS_P1;PMS_P2;Temp;Humidity;BMP_temperature;BMP_pressure;BME280_temperature;BME280_humidity;BME280_pressure;Samples;Min_cycle;Max_cycle;Signal;HPM_P1;HPM_P2
2022/01/06 00:02:16;;;;;;;52.70;23.13;;;;;;;4.30;81.85;93988.25;5053571;28;20225;-81
2022/01/06 00:04:42;;;;;;;47.53;21.00;;;;;;;4.41;82.57;94029.41;5052642;28;20171;-81
2022/01/06 00:07:08;;;;;;;38.50;19.53;;;;;;;4.22;82.82;93998.84;5052904;28;20151;-81
2022/01/06 00:09:33;;;;;;;43.60;20.17;;;;;;;4.39;82.63;94032.19;5052442;28;20199;-81
2022/01/06 00:11:59;;;;;;;46.33;20.70;;;;;;;4.41;82.64;94029.41;5053100;28;20162;-81
2022/01/06 00:17:23;;;;;;;40.80;21.23;;;;;;;4.16;82.95;94009.00;5052734;28;20228;-81
2022/01/06 00:25:16;;;;;;;37.97;18.93;;;;;;;4.31;82.31;94023.75;5058421;28;20174;-81
2022/01/06 00:27:41;;;;;;;38.83;18.50;;;;;;;4.27;82.22;94012.09;5057206;28;20175;-81
2022/01/06 00:30:07;;;;;;;38.47;18.23;;;;;;;4.28;82.90;94016.28;5069675;28;20212;-81
2022/01/06 00:32:33;;;;;;;40.57;19.20;;;;;;;4.29;83.02;94015.31;5072429;28;20633;-81
2022/01/06 00:34:58;;;;;;;33.43;17.63;;;;;;;4.24;82.46;94010.66;5070671;28;20291;-81
2022/01/06 00:37:24;;;;;;;39.03;19.07;;;;;;;4.26;82.06;94037.31;5070853;28;20269;-81
2022/01/06 00:39:49;;;;;;;36.43;16.50;;;;;;;4.01;82.57;94005.75;5070851;28;20174;-81
2022/01/06 00:42:16;;;;;;;32.80;16.43;;;;;;;4.24;83.47;94041.13;5072100;28;20158;-81
2022/01/06 00:44:41;;;;;;;37.20;17.47;;;;;;;4.07;82.81;94022.38;5071988;28;20250;-81
2022/01/06 00:47:07;;;;;;;265.47;119.17;;;;;;;4.23;84.18;94037.72;5061346;28;20175;-81
2022/01/06 00:49:32;;;;;;;97.77;45.63;;;;;;;4.24;84.51;94028.88;5069336;28;20220;-81
2022/01/06 00:51:58;;;;;;;88.90;39.70;;;;;;;4.25;84.23;94014.06;5063140;28;20175;-81
2022/01/06 00:54:23;;;;;;;79.57;37.07;;;;;;;4.36;83.81;94023.94;5063150;28;20178;-81
2022/01/06 00:56:49;;;;;;;55.57;25.20;;;;;;;4.34;83.19;93997.28;5071984;28;20656;-80
2022/01/06 00:59:14;;;;;;;49.13;25.77;;;;;;;4.72;83.13;94047.97;5058842;28;20210;-81
2022/01/06 01:01:40;;;;;;;34.13;18.77;;;;;;;4.71;82.86;94051.56;5062792;28;20175;-80
2022/01/06 01:04:05;;;;;;;32.93;17.53;;;;;;;4.82;82.14;94064.06;5062903;28;20166;-80
2022/01/06 01:06:30;;;;;;;37.13;18.13;;;;;;;4.66;80.87;94037.53;5054718;28;20558;-81
2022/01/06 01:08:56;;;;;;;36.33;18.43;;;;;;;4.69;80.45;94057.97;5069383;28;20194;-81
2022/01/06 01:11:23;;;;;;;52.30;24.47;;;;;;;4.52;81.74;94062.69;5061457;28;20182;-81
2022/01/06 01:13:55;;;;;;;55.47;25.83;;;;;;;4.35;83.12;94053.59;5072056;28;20612;-80
2022/01/06 01:16:28;;;;;;;56.03;25.03;;;;;;;4.26;83.94;94046.94;5056050;28;20179;-81
2022/01/06 01:18:56;;;;;;;47.00;22.47;;;;;;;4.26;84.42;94060.75;5052144;28;20220;-81
2022/01/06 01:21:26;;;;;;;47.03;23.70;;;;;;;4.04;84.00;94030.59;5055181;28;20201;-81
2022/01/06 01:23:53;;;;;;;48.73;24.40;;;;;;;4.21;83.93;94052.72;5061387;28;20316;-81
2022/01/06 01:26:18;;;;;;;46.87;22.67;;;;;;;3.91;83.76;93994.06;5070293;28;20185;-80
2022/01/06 01:28:45;;;;;;;52.73;24.00;;;;;;;4.13;83.29;94042.47;5063562;28;20186;-81
2022/01/06 01:31:37;;;;;;;156.17;74.10;;;;;;;4.11;83.68;94042.66;5062642;28;20178;-81
2022/01/06 01:34:02;;;;;;;51.40;23.53;;;;;;;4.24;83.62;94048.94;5051305;28;20218;-80
2022/01/06 01:36:27;;;;;;;41.43;18.33;;;;;;;4.09;82.87;94028.22;5050306;28;20171;-80
2022/01/06 01:38:53;;;;;;;39.70;20.50;;;;;;;4.08;83.17;94030.00;5050283;28;20163;-81
2022/01/06 01:41:19;;;;;;;37.20;19.13;;;;;;;4.13;82.69;94047.69;5051464;28;20183;-81
2022/01/06 01:43:48;;;;;;;36.73;17.60;;;;;;;4.13;82.45;94043.28;5051486;28;20565;-80
2022/01/06 01:46:17;;;;;;;37.20;19.30;;;;;;;3.97;82.60;94027.97;5051691;28;20164;-80
2022/01/06 01:48:49;;;;;;;43.13;20.83;;;;;;;3.88;82.49;94007.47;5059724;28;20178;-80
2022/01/06 01:51:14;;;;;;;41.53;22.40;;;;;;;4.01;82.49;94023.97;5062411;28;20176;-80
2022/01/06 01:53:40;;;;;;;44.20;22.37;;;;;;;3.70;82.35;93968.91;5057696;28;20173;-81
2022/01/06 01:56:08;;;;;;;48.30;22.80;;;;;;;3.71;82.28;93970.53;5067145;28;20175;-81
2022/01/06 01:58:35;;;;;;;53.03;23.20;;;;;;;3.93;84.10;94024.13;5071922;28;20171;-81
2022/01/06 02:01:00;;;;;;;52.60;24.70;;;;;;;3.92;84.55;94019.09;5074975;28;20174;-81
2022/01/06 02:03:26;;;;;;;55.67;25.20;;;;;;;3.85;84.38;94020.84;5075251;28;20174;-81
2022/01/06 02:05:51;;;;;;;66.80;28.10;;;;;;;3.92;84.70;94026.91;5074919;28;20576;-81
2022/01/06 02:08:17;;;;;;;59.10;26.43;;;;;;;3.66;84.28;93996.31;5074826;28;20257;-81
2022/01/06 02:10:46;;;;;;;57.10;27.30;;;;;;;3.59;84.20;94017.06;5075335;28;20190;-81
2022/01/06 02:13:11;;;;;;;55.60;23.70;;;;;;;3.64;84.19;94043.31;5075361;28;20162;-81
2022/01/06 02:15:37;;;;;;;54.83;23.90;;;;;;;3.64;84.42;94032.91;5074704;28;20556;-81
2022/01/06 02:18:02;;;;;;;52.27;24.43;;;;;;;3.51;84.43;94027.63;5065717;28;20190;-81
2022/01/06 02:20:29;;;;;;;50.10;22.07;;;;;;;3.52;84.22;94039.63;5064040;28;20178;-80
2022/01/06 02:22:54;;;;;;;52.93;22.63;;;;;;;3.38;84.46;94012.69;5065464;28;20257;-81
2022/01/06 02:25:32;;;;;;;43.27;20.47;;;;;;;3.45;85.00;94051.78;5057249;28;20206;-81
2022/01/06 02:28:02;;;;;;;48.23;22.67;;;;;;;3.40;85.27;94056.72;5066443;28;20170;-81
2022/01/06 02:30:27;;;;;;;43.43;21.00;;;;;;;3.32;85.55;94036.06;5059507;28;20277;-81
2022/01/06 02:32:54;;;;;;;46.53;20.10;;;;;;;3.50;85.29;94057.22;5062597;28;20677;-81
2022/01/06 02:35:23;;;;;;;39.83;20.73;;;;;;;3.52;85.43;94072.66;5054419;28;20175;-81
2022/01/06 02:37:48;;;;;;;44.37;21.20;;;;;;;3.47;84.83;94064.59;5054322;28;20190;-80
2022/01/06 02:40:17;;;;;;;51.77;22.10;;;;;;;3.41;84.15;94053.94;5063124;28;20550;-81
2022/01/06 02:42:46;;;;;;;46.10;21.53;;;;;;;3.50;83.65;94062.44;5058202;28;20656;-81
2022/01/06 02:45:12;;;;;;;52.50;25.20;;;;;;;3.53;83.68;94069.06;5062961;28;20179;-81
2022/01/06 02:47:38;;;;;;;51.27;24.90;;;;;;;3.55;83.49;94072.25;5061699;28;20228;-81
2022/01/06 02:50:06;;;;;;;52.23;22.43;;;;;;;3.44;83.30;94051.97;5062871;28;20231;-81
2022/01/06 02:52:32;;;;;;;41.07;23.03;;;;;;;3.39;83.70;94034.31;5064133;28;20174;-81
2022/01/06 02:54:57;;;;;;;53.03;26.67;;;;;;;3.35;84.10;94033.91;5073965;28;20177;-81
2022/01/06 02:57:23;;;;;;;56.00;26.13;;;;;;;3.56;83.54;94060.84;5072766;28;20170;-81
2022/01/06 02:59:48;;;;;;;54.27;23.47;;;;;;;3.25;84.55;94032.59;5073888;28;20223;-81
2022/01/06 03:02:14;;;;;;;51.23;23.53;;;;;;;3.24;86.49;94023.19;5073856;28;20159;-81
2022/01/06 03:04:39;;;;;;;51.33;24.87;;;;;;;3.21;86.91;94002.75;5074126;28;20537;-81
2022/01/06 03:07:07;;;;;;;52.87;25.23;;;;;;;3.16;86.62;94018.09;5064966;28;20202;-81
2022/01/06 03:09:41;;;;;;;57.73;27.43;;;;;;;3.24;86.10;94028.38;5055892;28;20206;-81
2022/01/06 03:12:20;;;;;;;55.40;27.47;;;;;;;3.01;85.35;93995.59;5061846;28;20549;-81
2022/01/06 03:14:45;;;;;;;57.83;28.13;;;;;;;3.39;85.38;94061.13;5069632;28;20178;-81
2022/01/06 03:17:11;;;;;;;60.87;28.70;;;;;;;3.16;85.93;94031.09;5057451;28;20187;-81
2022/01/06 03:19:36;;;;;;;61.30;27.03;;;;;;;3.30;85.83;94056.22;5064446;28;20205;-81
2022/01/06 03:22:03;;;;;;;51.37;26.47;;;;;;;3.27;86.41;94041.03;5064478;28;20170;-81
2022/01/06 03:24:28;;;;;;;55.10;27.60;;;;;;;3.38;86.62;94053.50;5064525;28;20205;-81
2022/01/06 03:26:54;;;;;;;62.20;30.07;;;;;;;3.50;85.96;94065.03;5073431;28;20202;-81
2022/01/06 03:29:20;;;;;;;65.13;30.03;;;;;;;3.47;85.29;94057.59;5073263;28;20210;-81
2022/01/06 03:31:46;;;;;;;58.97;31.17;;;;;;;3.48;85.87;94048.00;5071964;28;20179;-81
2022/01/06 03:34:11;;;;;;;55.60;28.70;;;;;;;3.17;85.95;93999.72;5073093;28;20238;-81
2022/01/06 03:36:37;;;;;;;56.10;26.53;;;;;;;3.38;85.27;94025.69;5063069;28;20235;-81
2022/01/06 03:39:02;;;;;;;51.07;24.30;;;;;;;3.33;84.93;94020.28;5053480;28;20160;-81
2022/01/06 03:41:28;;;;;;;53.10;24.33;;;;;;;3.41;84.59;94042.75;5060658;28;20217;-81
2022/01/06 03:43:53;;;;;;;44.77;21.83;;;;;;;3.16;84.50;94023.31;5053026;28;20206;-81
2022/01/06 03:46:19;;;;;;;45.20;24.83;;;;;;;3.02;84.49;93993.81;5051772;28;20283;-81
2022/01/06 03:48:44;;;;;;;49.90;26.37;;;;;;;3.25;84.04;94036.00;5052640;28;20253;-82
2022/01/06 05:27:25;;;;;;;75.03;52.00;;;;;;;2.64;89.05;94092.72;5171888;27;20533;-81
2022/01/06 05:29:51;;;;;;;69.33;38.33;;;;;;;2.86;88.22;94116.97;5171680;27;20181;-81
2022/01/06 05:32:17;;;;;;;61.03;30.77;;;;;;;2.78;87.85;94098.06;5171517;27;20190;-81
2022/01/06 05:34:42;;;;;;;57.87;30.47;;;;;;;2.94;88.04;94103.09;5171505;27;20210;-81
2022/01/06 05:37:07;;;;;;;65.27;33.50;;;;;;;2.91;88.41;94093.84;5171852;27;20182;-81
2022/01/06 05:39:33;;;;;;;65.17;34.20;;;;;;;3.07;87.74;94095.41;5171307;27;20198;-80
2022/01/06 05:41:58;;;;;;;58.00;30.37;;;;;;;3.01;87.31;94114.34;5171249;27;20924;-80
2022/01/06 05:44:25;;;;;;;43.87;24.90;;;;;;;2.93;87.23;94101.47;5171407;27;20175;-80
2022/01/06 05:46:51;;;;;;;61.40;30.73;;;;;;;3.06;87.18;94124.19;5171320;27;20699;-81
2022/01/06 05:49:16;;;;;;;57.53;28.67;;;;;;;2.99;87.28;94103.31;5171212;27;20175;-80
2022/01/06 05:51:42;;;;;;;50.07;27.57;;;;;;;2.94;86.82;94100.47;5171316;27;20696;-80
2022/01/06 05:54:08;;;;;;;65.13;34.33;;;;;;;3.06;87.13;94124.19;5171808;27;20182;-80
2022/01/06 05:56:33;;;;;;;82.73;35.50;;;;;;;3.06;86.84;94122.41;5171121;27;20175;-80
2022/01/06 05:58:58;;;;;;;116.70;55.93;;;;;;;2.90;86.53;94107.03;5171019;27;20187;-79
2022/01/06 06:01:24;;;;;;;120.10;55.60;;;;;;;3.04;87.37;94129.56;5170971;27;20224;-80
2022/01/06 06:03:50;;;;;;;83.23;42.43;;;;;;;3.08;87.17;94104.03;5170974;27;20177;-80
2022/01/06 06:06:16;;;;;;;72.83;37.43;;;;;;;3.14;87.74;94103.28;5170968;27;20159;-80
2022/01/06 06:08:41;;;;;;;83.83;41.10;;;;;;;3.17;87.46;94123.72;5171065;27;20166;-80
2022/01/06 06:11:07;;;;;;;81.10;42.83;;;;;;;3.21;87.63;94119.75;5170955;27;20163;-80
2022/01/06 06:13:32;;;;;;;124.97;68.23;;;;;;;3.00;86.54;94105.75;5171244;27;20155;-80
2022/01/06 06:15:58;;;;;;;125.23;65.53;;;;;;;3.11;87.18;94125.28;5171076;27;20179;-80
2022/01/06 06:18:23;;;;;;;116.53;60.60;;;;;;;2.90;88.50;94112.22;5171092;27;20556;-80
2022/01/06 06:20:49;;;;;;;92.23;51.67;;;;;;;3.06;88.60;94132.00;5171028;27;20840;-80
2022/01/06 06:23:14;;;;;;;96.73;54.03;;;;;;;3.17;87.95;94124.53;5170776;27;20238;-80
2022/01/06 06:25:40;;;;;;;107.30;57.13;;;;;;;3.09;86.77;94122.03;5170626;27;20215;-80
2022/01/06 06:28:05;;;;;;;93.77;55.37;;;;;;;3.20;87.52;94141.56;5159138;27;20172;-78
2022/01/06 06:30:31;;;;;;;97.73;52.97;;;;;;;3.26;86.89;94131.22;5156288;27;20160;-80
2022/01/06 06:32:56;;;;;;;79.97;42.93;;;;;;;3.18;87.28;94105.34;5137492;27;20183;-80
2022/01/06 06:35:22;;;;;;;86.00;45.93;;;;;;;3.52;87.09;94142.88;5137554;27;20188;-80
2022/01/06 06:37:47;;;;;;;84.60;41.60;;;;;;;3.41;86.80;94136.38;5156365;27;20168;-80
2022/01/06 06:40:22;;;;;;;74.73;39.80;;;;;;;3.42;86.79;94141.41;5156303;27;20176;-80
2022/01/06 06:42:47;;;;;;;67.57;35.37;;;;;;;3.48;87.31;94139.03;5156066;27;20171;-79
2022/01/06 06:45:13;;;;;;;64.77;36.10;;;;;;;3.45;86.56;94122.03;5156024;27;20669;-80
2022/01/06 06:47:38;;;;;;;70.43;36.00;;;;;;;3.55;86.41;94126.88;5155729;27;20168;-79
2022/01/06 06:50:04;;;;;;;59.20;31.40;;;;;;;3.68;85.48;94142.63;5137085;27;20195;-79
2022/01/06 06:52:30;;;;;;;54.87;32.20;;;;;;;3.81;85.43;94160.97;5153274;27;20171;-80
2022/01/06 06:54:55;;;;;;;55.23;31.13;;;;;;;3.84;85.09;94149.38;5155591;27;20578;-80
2022/01/06 06:57:20;;;;;;;63.33;31.73;;;;;;;3.78;84.93;94130.13;5155908;27;20172;-81
2022/01/06 06:59:46;;;;;;;66.63;33.10;;;;;;;3.87;85.51;94129.00;5155722;27;20179;-81
2022/01/06 07:02:11;;;;;;;81.40;45.50;;;;;;;3.91;85.53;94112.00;5153153;27;20171;-80
2022/01/06 07:04:37;;;;;;;85.03;45.20;;;;;;;4.48;84.66;94139.66;5137172;27;20647;-80
2022/01/06 07:07:02;;;;;;;74.00;41.13;;;;;;;5.01;83.17;94156.38;5155370;27;20164;-80
2022/01/06 07:09:28;;;;;;;70.13;43.40;;;;;;;5.36;80.96;94153.72;5136945;27;20935;-80
2022/01/06 07:11:53;;;;;;;83.00;43.87;;;;;;;6.23;80.61;94153.66;5155468;27;20566;-80
2022/01/06 07:14:18;;;;;;;77.60;42.93;;;;;;;7.29;76.01;94156.84;5136686;27;20172;-78
2022/01/06 07:16:44;;;;;;;66.40;38.03;;;;;;;8.34;72.40;94161.50;5137124;27;20195;-78
2022/01/06 07:19:09;;;;;;;73.13;40.90;;;;;;;9.30;69.02;94180.16;5155360;27;20176;-78
2022/01/06 07:21:34;;;;;;;81.70;42.50;;;;;;;10.18;66.05;94193.63;5155511;27;20250;-78
2022/01/06 07:24:00;;;;;;;96.80;48.67;;;;;;;10.63;63.75;94185.25;5155166;27;20657;-78
2022/01/06 07:26:25;;;;;;;66.63;37.93;;;;;;;11.61;60.61;94158.91;5155218;27;20243;-78
2022/01/06 07:28:51;;;;;;;64.93;37.10;;;;;;;12.82;58.26;94180.56;5155203;27;20172;-78
2022/01/06 07:31:16;;;;;;;76.77;41.30;;;;;;;14.00;54.20;94178.44;5134789;27;20180;-77
2022/01/06 07:33:42;;;;;;;72.17;38.50;;;;;;;14.89;51.09;94163.63;5144103;27;20179;-78
2022/01/06 07:36:07;;;;;;;64.63;34.87;;;;;;;15.95;48.56;94174.06;5155348;27;20303;-79
2022/01/06 07:38:33;;;;;;;70.83;37.80;;;;;;;16.15;47.42;94175.97;5154018;27;20228;-80
2022/01/06 07:40:58;;;;;;;95.30;47.07;;;;;;;16.07;47.56;94187.91;5155010;27;20174;-79
2022/01/06 07:43:24;;;;;;;61.93;35.53;;;;;;;15.53;48.34;94191.88;5154971;27;20167;-79
2022/01/06 07:45:49;;;;;;;56.13;29.93;;;;;;;15.32;49.08;94185.66;5154764;27;20651;-79
2022/01/06 07:48:18;;;;;;;61.23;32.77;;;;;;;14.98;48.85;94209.03;5154759;27;20166;-79
2022/01/06 07:50:45;;;;;;;69.50;36.57;;;;;;;14.84;50.87;94192.75;5154839;27;20178;-80
2022/01/06 07:53:11;;;;;;;42.10;24.03;;;;;;;16.47;48.41;94186.41;5155093;27;20273;-82
2022/01/06 07:55:39;;;;;;;46.10;27.73;;;;;;;18.25;44.67;94201.03;5154655;27;20266;-82
2022/01/06 07:58:05;;;;;;;44.70;26.45;;;;;;;19.50;41.49;94159.59;5154756;27;20171;-81
2022/01/06 08:00:30;;;;;;;46.88;28.67;;;;;;;21.46;38.37;94178.53;5154590;27;20170;-82
2022/01/06 08:02:56;;;;;;;33.72;18.45;;;;;;;22.28;33.50;94196.56;5154744;27;20200;-82
2022/01/06 08:05:23;;;;;;;36.95;20.23;;;;;;;22.30;33.13;94195.19;5155052;27;20167;-81
2022/01/06 08:07:49;;;;;;;39.40;21.73;;;;;;;22.31;33.43;94185.25;5154846;27;20160;-82
2022/01/06 08:10:14;;;;;;;34.95;19.48;;;;;;;22.62;32.68;94210.31;5154651;27;20177;-82
2022/01/06 08:12:40;;;;;;;33.20;20.50;;;;;;;22.95;32.00;94201.00;5154893;27;20189;-82
2022/01/06 08:15:06;;;;;;;42.75;19.95;;;;;;;22.59;31.98;94189.44;5154454;27;20667;-81
2022/01/06 08:17:32;;;;;;;36.72;18.33;;;;;;;22.48;32.65;94199.63;5154547;27;20263;-82
2022/01/06 08:19:57;;;;;;;31.75;18.55;;;;;;;22.45;33.13;94202.13;5154333;27;20626;-81
2022/01/06 08:22:23;;;;;;;26.77;15.95;;;;;;;21.85;32.97;94207.56;5154469;27;20246;-81
2022/01/06 08:24:52;;;;;;;29.95;14.43;;;;;;;21.49;33.56;94210.09;5135925;27;20160;-81
2022/01/06 08:27:18;;;;;;;37.08;16.33;;;;;;;21.01;34.41;94196.16;5154212;27;20207;-82
2022/01/06 08:29:43;;;;;;;31.63;15.63;;;;;;;20.23;36.28;94200.16;5154449;27;20189;-81
2022/01/06 08:32:09;;;;;;;25.27;14.77;;;;;;;18.87;38.83;94204.94;5154206;27;20250;-81
2022/01/06 08:34:35;;;;;;;27.25;15.43;;;;;;;18.48;39.22;94207.59;5154382;27;20213;-81
2022/01/06 08:37:00;;;;;;;28.08;14.25;;;;;;;18.28;39.84;94203.16;5154079;27;20230;-81
2022/01/06 08:39:26;;;;;;;22.80;12.98;;;;;;;18.44;40.99;94206.53;5154404;27;20224;-82
2022/01/06 08:41:53;;;;;;;23.50;12.23;;;;;;;18.37;39.28;94212.19;5154370;27;21042;-82
2022/01/06 08:44:19;;;;;;;16.38;9.98;;;;;;;18.07;40.39;94212.34;5154131;27;20171;-88
2022/01/06 08:46:46;;;;;;;18.27;9.90;;;;;;;17.74;40.44;94181.81;5154339;27;20196;-84
2022/01/06 08:49:12;;;;;;;19.58;10.45;;;;;;;17.01;40.95;94146.84;5135483;27;20195;-82
2022/01/06 08:51:38;;;;;;;20.30;10.43;;;;;;;16.71;42.37;94150.31;5154032;27;20179;-87
2022/01/06 08:54:06;;;;;;;19.43;10.33;;;;;;;15.89;43.60;94222.09;5135791;27;20172;-82
2022/01/06 08:56:35;;;;;;;17.87;10.50;;;;;;;15.33;45.89;94148.28;5154088;27;20187;-82
2022/01/06 08:59:00;;;;;;;18.63;10.53;;;;;;;15.57;46.60;94137.31;5154146;27;20232;-81
2022/01/06 09:01:26;;;;;;;21.10;10.57;;;;;;;15.94;45.28;94190.22;5135400;27;20168;-81
2022/01/06 09:03:54;;;;;;;14.60;10.00;;;;;;;16.04;45.10;94188.41;5154396;27;20250;-80
2022/01/06 09:06:20;;;;;;;21.17;10.57;;;;;;;16.16;45.91;94177.56;5153625;27;20236;-81
2022/01/06 09:08:48;;;;;;;19.40;10.70;;;;;;;16.31;44.36;94185.56;5153673;27;20175;-80
2022/01/06 09:11:14;;;;;;;19.87;10.90;;;;;;;16.35;44.79;94180.50;5153921;27;20611;-82
2022/01/06 09:13:41;;;;;;;20.43;10.90;;;;;;;16.37;44.39;94170.44;5135259;27;20213;-80
2022/01/06 09:16:08;;;;;;;20.80;12.37;;;;;;;16.62;44.30;94193.63;5153910;27;20189;-79
2022/01/06 09:18:38;;;;;;;22.03;12.20;;;;;;;16.45;44.14;94169.91;5153944;27;20148;-81
2022/01/06 09:21:04;;;;;;;25.00;11.57;;;;;;;16.56;44.77;94182.16;5153256;27;20186;-79
2022/01/06 09:23:30;;;;;;;27.57;12.37;;;;;;;16.57;44.53;94157.19;5153622;27;20167;-80
2022/01/06 09:25:56;;;;;;;28.20;12.33;;;;;;;16.35;44.46;94141.47;5153043;27;20278;-80
2022/01/06 09:28:21;;;;;;;25.13;12.00;;;;;;;16.48;44.02;94174.72;5152848;27;20214;-80
2022/01/06 09:30:46;;;;;;;21.40;12.63;;;;;;;16.07;44.57;94176.50;5152572;27;20174;-79
2022/01/06 09:33:13;;;;;;;25.53;12.73;;;;;;;15.95;46.33;94170.59;5153667;27;20200;-80
2022/01/06 09:35:39;;;;;;;23.20;12.80;;;;;;;15.90;44.82;94134.22;5153715;27;20187;-80
2022/01/06 09:38:04;;;;;;;23.73;12.90;;;;;;;15.79;45.45;94135.25;5153571;27;20636;-79
2022/01/06 09:40:30;;;;;;;31.20;13.77;;;;;;;15.71;45.31;94159.63;5134969;27;20651;-80
2022/01/06 09:42:55;;;;;;;25.23;14.47;;;;;;;15.60;46.02;94153.47;5153618;27;20250;-78
2022/01/06 09:45:25;;;;;;;22.53;13.50;;;;;;;15.50;46.29;94150.75;5154017;27;20152;-79
2022/01/06 09:47:52;;;;;;;25.23;12.03;;;;;;;15.46;45.90;94174.34;5153937;27;20175;-79
2022/01/06 09:50:17;;;;;;;28.00;14.33;;;;;;;15.33;46.00;94127.06;5152945;27;20179;-79
2022/01/06 09:52:43;;;;;;;22.40;13.23;;;;;;;14.87;47.08;94101.38;5152139;27;20194;-79
2022/01/06 09:55:09;;;;;;;28.23;13.37;;;;;;;15.10;47.60;94154.00;5156907;27;20191;-78
2022/01/06 09:57:35;;;;;;;30.30;16.07;;;;;;;15.15;47.99;94143.41;5152748;27;20172;-79
2022/01/06 10:00:01;;;;;;;28.03;14.13;;;;;;;15.27;47.36;94146.66;5155304;27;20179;-79
2022/01/06 10:02:37;;;;;;;21.70;14.23;;;;;;;15.18;47.12;94163.31;5152427;27;20268;-78
2022/01/06 10:05:04;;;;;;;30.60;13.60;;;;;;;15.14;47.17;94148.94;5154910;27;20178;-79
2022/01/06 10:07:39;;;;;;;34.47;13.30;;;;;;;15.12;47.67;94137.81;5154970;27;20185;-79
2022/01/06 10:10:07;;;;;;;27.23;15.73;;;;;;;15.24;47.20;94151.66;5154795;27;20529;-79
2022/01/06 10:12:32;;;;;;;25.70;13.10;;;;;;;15.20;47.67;94148.75;5155237;27;20175;-79
2022/01/06 10:14:59;;;;;;;29.37;15.57;;;;;;;14.89;47.08;94131.84;5154844;27;20536;-79
2022/01/06 10:17:31;;;;;;;26.67;14.53;;;;;;;14.96;48.02;94147.53;5155460;27;20225;-79
2022/01/06 10:20:08;;;;;;;27.50;14.27;;;;;;;15.13;47.71;94134.13;5154942;27;20594;-79
2022/01/06 10:22:43;;;;;;;31.30;12.80;;;;;;;15.04;47.08;94124.00;5154859;27;20207;-79
2022/01/06 10:25:10;;;;;;;26.77;13.87;;;;;;;14.98;47.74;94121.56;5154863;27;20171;-79
2022/01/06 10:27:37;;;;;;;29.37;14.13;;;;;;;15.12;46.97;94140.47;5154912;27;20614;-78
2022/01/06 10:30:05;;;;;;;24.57;13.47;;;;;;;14.96;48.38;94148.31;5154868;27;20198;-78
2022/01/06 10:32:32;;;;;;;31.90;14.03;;;;;;;14.88;48.28;94110.88;5154514;27;20168;-78
2022/01/06 10:35:02;;;;;;;30.03;13.83;;;;;;;15.01;47.31;94144.91;5135931;27;20175;-78
2022/01/06 10:37:40;;;;;;;22.93;11.63;;;;;;;14.83;46.93;94130.22;5152372;27;20222;-78
2022/01/06 10:40:11;;;;;;;21.63;12.30;;;;;;;14.91;47.66;94134.25;5136003;27;20178;-78
2022/01/06 10:42:39;;;;;;;22.47;11.00;;;;;;;15.02;47.10;94135.91;5154560;27;20610;-78
2022/01/06 10:45:10;;;;;;;24.97;9.97;;;;;;;15.18;46.61;94129.63;5154506;27;20171;-78
2022/01/06 10:47:37;;;;;;;19.93;7.70;;;;;;;15.18;45.17;94112.94;5154372;27;20159;-78
2022/01/06 10:50:29;;;;;;;16.17;7.50;;;;;;;15.36;44.81;94131.06;5154477;27;20228;-78
2022/01/06 10:53:04;;;;;;;16.87;7.90;;;;;;;15.41;44.87;94089.44;5148303;27;20180;-78
2022/01/06 10:55:35;;;;;;;12.63;6.33;;;;;;;15.59;44.09;94105.97;5152795;27;20608;-78
2022/01/06 10:58:02;;;;;;;10.73;5.23;;;;;;;15.63;45.28;94109.72;5155316;27;20189;-78
2022/01/06 11:00:35;;;;;;;9.87;4.27;;;;;;;15.73;43.33;94107.09;5154476;27;20224;-78
2022/01/06 11:03:13;;;;;;;12.07;4.57;;;;;;;15.71;42.31;94103.91;5155619;27;20190;-78
2022/01/06 11:05:43;;;;;;;7.60;3.93;;;;;;;15.82;41.82;94087.75;5155666;27;20174;-78
2022/01/06 11:08:10;;;;;;;10.50;3.27;;;;;;;15.87;41.77;94084.31;5153115;27;20163;-78
2022/01/06 11:10:46;;;;;;;9.03;3.80;;;;;;;16.03;41.86;94099.22;5152706;27;20185;-78
2022/01/06 11:13:12;;;;;;;8.57;3.90;;;;;;;16.02;42.47;94080.88;5152292;27;20207;-78
2022/01/06 11:15:38;;;;;;;8.47;4.17;;;;;;;16.17;41.90;94094.97;5152555;27;20237;-78
2022/01/06 11:18:05;;;;;;;9.33;3.47;;;;;;;16.10;40.90;94083.81;5133351;27;20179;-78
2022/01/06 11:20:31;;;;;;;11.97;3.27;;;;;;;16.18;41.33;94091.25;5151205;27;20254;-78
2022/01/06 11:22:59;;;;;;;6.30;2.40;;;;;;;16.18;39.76;94085.94;5132875;27;20183;-78
2022/01/06 11:25:43;;;;;;;7.07;2.83;;;;;;;16.13;40.30;94080.63;5152070;27;20274;-78
2022/01/06 11:28:11;;;;;;;4.10;2.33;;;;;;;16.05;39.84;94053.81;5154595;27;20278;-79
2022/01/06 11:30:49;;;;;;;8.03;2.43;;;;;;;16.07;40.21;94081.69;5146360;27;20179;-79
2022/01/06 11:33:15;;;;;;;3.80;2.30;;;;;;;16.11;40.28;94085.41;5151544;27;20654;-79
2022/01/06 11:35:55;;;;;;;5.13;2.30;;;;;;;16.08;40.10;94093.13;5151005;27;20306;-79
2022/01/06 11:38:25;;;;;;;6.13;2.57;;;;;;;16.04;41.83;94078.75;5151790;27;20179;-79
2022/01/06 11:41:05;;;;;;;7.37;2.57;;;;;;;16.28;40.26;94097.63;5152313;27;20207;-80
2022/01/06 11:43:39;;;;;;;9.23;2.40;;;;;;;16.14;40.05;94066.31;5144148;27;20595;-79
2022/01/06 11:46:05;;;;;;;6.37;2.40;;;;;;;16.20;40.90;94091.00;5150712;27;20179;-79
2022/01/06 11:48:30;;;;;;;8.70;2.73;;;;;;;16.37;41.38;94088.09;5154412;27;20168;-79
2022/01/06 11:50:56;;;;;;;7.67;2.10;;;;;;;16.41;40.72;94097.13;5153299;27;20173;-79
2022/01/06 11:53:32;;;;;;;6.27;2.37;;;;;;;16.27;40.28;94069.47;5149036;27;20209;-81
2022/01/06 11:55:59;;;;;;;8.27;2.90;;;;;;;16.26;40.63;94086.50;5145860;27;20188;-80
2022/01/06 11:58:25;;;;;;;7.80;3.10;;;;;;;16.14;40.73;94047.72;5152661;27;20179;-81
2022/01/06 12:01:08;;;;;;;8.67;2.47;;;;;;;16.41;40.85;94081.19;5127192;27;20183;-79
2022/01/06 12:03:36;;;;;;;13.70;2.50;;;;;;;16.36;40.82;94099.78;5134828;27;20172;-79
2022/01/06 12:06:03;;;;;;;4.37;1.90;;;;;;;16.32;40.25;94091.56;5150441;27;20659;-78
2022/01/06 12:08:42;;;;;;;8.90;2.37;;;;;;;16.34;40.72;94101.91;5127369;27;20566;-78
2022/01/06 12:11:21;;;;;;;6.77;2.17;;;;;;;16.38;40.87;94097.66;5145471;27;20743;-79
2022/01/06 12:13:47;;;;;;;4.33;2.43;;;;;;;16.33;40.58;94098.47;5130131;27;20175;-79
2022/01/06 12:16:25;;;;;;;7.37;2.97;;;;;;;16.32;40.67;94096.88;5146296;27;20195;-78
2022/01/06 12:18:51;;;;;;;7.30;2.47;;;;;;;16.34;40.79;94091.28;5147179;27;20191;-78
2022/01/06 12:21:17;;;;;;;6.50;2.43;;;;;;;16.45;40.50;94100.84;5149184;27;20171;-79
2022/01/06 12:23:47;;;;;;;6.37;2.60;;;;;;;16.45;40.16;94100.84;5148478;27;20196;-79
2022/01/06 12:26:13;;;;;;;5.43;2.70;;;;;;;16.45;39.71;94083.03;5149878;27;20576;-79
2022/01/06 12:28:48;;;;;;;4.77;2.17;;;;;;;16.44;39.35;94093.94;5146867;27;20178;-78
2022/01/06 12:31:21;;;;;;;8.73;3.77;;;;;;;16.32;40.29;94088.09;5152432;27;20183;-80
2022/01/06 12:33:48;;;;;;;5.80;2.43;;;;;;;16.22;39.45;94070.28;5148529;27;20563;-81
2022/01/06 12:36:19;;;;;;;4.77;2.13;;;;;;;16.21;38.97;94061.53;5152382;27;20188;-80
2022/01/06 12:38:45;;;;;;;9.37;4.47;;;;;;;16.39;39.62;94089.41;5152331;27;20206;-80
2022/01/06 12:41:11;;;;;;;6.50;3.37;;;;;;;16.44;40.07;94086.75;5152343;27;20205;-80
2022/01/06 12:43:39;;;;;;;4.10;2.23;;;;;;;16.48;40.26;94092.34;5152409;27;20262;-80
2022/01/06 12:46:07;;;;;;;14.17;4.30;;;;;;;16.45;40.07;94079.59;5145948;27;20171;-80
2022/01/06 12:48:45;;;;;;;8.07;2.80;;;;;;;16.42;40.58;94088.91;5152337;27;20167;-81
2022/01/06 12:51:28;;;;;;;11.47;2.93;;;;;;;16.30;40.32;94084.91;5125336;27;20175;-80
2022/01/06 12:54:02;;;;;;;6.90;2.70;;;;;;;16.29;39.70;94083.31;5152586;27;20172;-81
2022/01/06 12:56:49;;;;;;;8.40;2.67;;;;;;;16.28;40.50;94095.78;5152201;27;20191;-80
2022/01/06 12:59:17;;;;;;;8.93;2.47;;;;;;;16.33;40.23;94097.66;5127932;27;20233;-80
2022/01/06 13:01:46;;;;;;;5.23;2.40;;;;;;;16.26;39.81;94094.47;5152747;27;20663;-80
2022/01/06 13:04:13;;;;;;;11.03;2.57;;;;;;;16.08;40.19;94070.03;5135218;27;20172;-80
2022/01/06 13:06:40;;;;;;;2.70;2.03;;;;;;;16.13;40.34;94091.25;5132720;27;20210;-80
2022/01/06 13:09:21;;;;;;;11.17;5.80;;;;;;;16.12;40.33;94105.59;5150460;27;20191;-82
2022/01/06 13:11:48;;;;;;;18.30;8.83;;;;;;;16.11;40.59;94106.66;5150554;27;20216;-82